Disclaimer

Please do not use the information listed here in-flight or in-navigation, as they are not provided to us by the airports but are provided by volunteers, so they might be outdated.

Search


Regions


Airport information page

Radio informations:
Tower (TWR) - 138.3 MHz
Ground (GND) - 138.3 MHz
TOKYO DEP - 126.0 MHz
TOKYO APP - 126.0 MHz

Airport informations:
Latitude: 35° 47' 56.20" N
Longitude: 140° 00' 40.00" E
Elevation: 98 feet - 30 meters
Operating hours: N/A
Operating agency: Military
Timezone: UTC+9
Fuel: JP-4, Wide cut turbine fuel MIL Spec T-5624

Runway information:
01/19 - 7380 x 150 feet< - >2249 x 46 meters

Recent METARs:
RJTL 202042Z 00000KT 9999 MIFG FEW020 SCT050 04/03 Q1022 RMK 1CU020 3SC050 A3021 FG ON RWY
RJTL 202042Z 00000KT 9999 MIFG FEW020 SCT050 04/03 Q1022 RMK 1CU020 3SC050 A3021 FG ON RWY
RJTL 202042Z 00000KT 9999 MIFG FEW020 SCT050 04/03 Q1022 RMK 1CU020 3SC050 A3021 FG ON RWY

Airport on the map: